sensor_id;sensor_type;location;lat;lon;timestamp;pressure;altitude;pressure_sealevel;temperature;humidity
38033;BME280;23841;48.524;1.342;2023-07-13T00:01:47;99394.03;;;24.06;41.76
38033;BME280;23841;48.524;1.342;2023-07-13T00:04:19;99397.75;;;24.05;42.09
38033;BME280;23841;48.524;1.342;2023-07-13T00:06:46;99389.72;;;24.03;42.17
38033;BME280;23841;48.524;1.342;2023-07-13T00:09:13;99396.25;;;24.01;42.08
38033;BME280;23841;48.524;1.342;2023-07-13T00:11:40;99389.09;;;24.00;42.12
38033;BME280;23841;48.524;1.342;2023-07-13T00:14:07;99393.56;;;24.01;42.16
38033;BME280;23841;48.524;1.342;2023-07-13T00:16:37;99398.97;;;24.01;42.13
38033;BME280;23841;48.524;1.342;2023-07-13T00:19:04;99396.25;;;24.01;42.00
38033;BME280;23841;48.524;1.342;2023-07-13T00:21:30;99399.94;;;24.00;42.07
38033;BME280;23841;48.524;1.342;2023-07-13T00:23:56;99399.94;;;24.00;42.21
38033;BME280;23841;48.524;1.342;2023-07-13T00:26:22;99400.19;;;23.97;42.31
38033;BME280;23841;48.524;1.342;2023-07-13T00:28:48;99393.88;;;23.96;42.21
38033;BME280;23841;48.524;1.342;2023-07-13T00:31:14;99399.31;;;23.96;42.20
38033;BME280;23841;48.524;1.342;2023-07-13T00:33:42;99393.16;;;23.94;42.35
38033;BME280;23841;48.524;1.342;2023-07-13T00:36:09;99394.88;;;23.95;42.38
38033;BME280;23841;48.524;1.342;2023-07-13T00:38:36;99405.75;;;23.95;42.24
38033;BME280;23841;48.524;1.342;2023-07-13T00:41:03;99400.41;;;23.94;42.14
38033;BME280;23841;48.524;1.342;2023-07-13T00:43:29;99403.13;;;23.94;42.22
38033;BME280;23841;48.524;1.342;2023-07-13T00:48:25;99402.38;;;23.92;42.27
38033;BME280;23841;48.524;1.342;2023-07-13T00:50:55;99407.81;;;23.92;42.26
38033;BME280;23841;48.524;1.342;2023-07-13T00:53:25;99404.31;;;23.90;42.57
38033;BME280;23841;48.524;1.342;2023-07-13T00:55:56;99408.78;;;23.91;42.49
38033;BME280;23841;48.524;1.342;2023-07-13T00:58:26;99412.59;;;23.88;42.41
38033;BME280;23841;48.524;1.342;2023-07-13T01:00:53;99414.44;;;23.88;42.51
38033;BME280;23841;48.524;1.342;2023-07-13T01:03:19;99416.25;;;23.87;42.61
38033;BME280;23841;48.524;1.342;2023-07-13T01:05:47;99418.09;;;23.86;42.29
38033;BME280;23841;48.524;1.342;2023-07-13T01:08:13;99419.94;;;23.86;42.39
38033;BME280;23841;48.524;1.342;2023-07-13T01:10:39;99422.78;;;23.84;42.32
38033;BME280;23841;48.524;1.342;2023-07-13T01:13:06;99422.91;;;23.83;42.57
38033;BME280;23841;48.524;1.342;2023-07-13T01:15:43;99430.03;;;23.84;42.37
38033;BME280;23841;48.524;1.342;2023-07-13T01:18:17;99424.72;;;23.82;42.51
38033;BME280;23841;48.524;1.342;2023-07-13T01:21:06;99432.00;;;23.82;42.57
38033;BME280;23841;48.524;1.342;2023-07-13T01:23:32;99428.44;;;23.81;42.63
38033;BME280;23841;48.524;1.342;2023-07-13T01:25:58;99424.00;;;23.80;42.57
38033;BME280;23841;48.524;1.342;2023-07-13T01:28:25;99433.97;;;23.80;42.41
38033;BME280;23841;48.524;1.342;2023-07-13T01:30:53;99441.25;;;23.79;42.60
38033;BME280;23841;48.524;1.342;2023-07-13T01:33:18;99435.81;;;23.79;42.59
38033;BME280;23841;48.524;1.342;2023-07-13T01:35:44;99435.06;;;23.77;42.78
38033;BME280;23841;48.524;1.342;2023-07-13T01:38:11;99441.47;;;23.76;42.57
38033;BME280;23841;48.524;1.342;2023-07-13T01:40:37;99430.63;;;23.76;42.55
38033;BME280;23841;48.524;1.342;2023-07-13T01:43:03;99433.34;;;23.76;42.73
38033;BME280;23841;48.524;1.342;2023-07-13T01:45:29;99438.00;;;23.74;42.53
38033;BME280;23841;48.524;1.342;2023-07-13T01:47:54;99437.13;;;23.74;42.70
38033;BME280;23841;48.524;1.342;2023-07-13T01:50:20;99441.72;;;23.73;42.77
38033;BME280;23841;48.524;1.342;2023-07-13T01:52:46;99433.56;;;23.73;42.59
38033;BME280;23841;48.524;1.342;2023-07-13T01:55:11;99437.25;;;23.72;42.75
38033;BME280;23841;48.524;1.342;2023-07-13T01:57:37;99421.97;;;23.71;42.58
38033;BME280;23841;48.524;1.342;2023-07-13T02:00:10;99430.97;;;23.72;42.65
38033;BME280;23841;48.524;1.342;2023-07-13T02:02:36;99431.94;;;23.71;42.74
38033;BME280;23841;48.524;1.342;2023-07-13T02:05:01;99433.78;;;23.70;42.75
38033;BME280;23841;48.524;1.342;2023-07-13T02:07:27;99438.34;;;23.69;42.75
38033;BME280;23841;48.524;1.342;2023-07-13T02:09:52;99435.63;;;23.69;42.57
38033;BME280;23841;48.524;1.342;2023-07-13T02:12:18;99435.75;;;23.68;42.82
38033;BME280;23841;48.524;1.342;2023-07-13T02:14:43;99433.03;;;23.68;42.80
38033;BME280;23841;48.524;1.342;2023-07-13T02:17:10;99434.91;;;23.67;42.94
38033;BME280;23841;48.524;1.342;2023-07-13T02:19:35;99424.13;;;23.66;42.67
38033;BME280;23841;48.524;1.342;2023-07-13T02:22:01;99434.97;;;23.66;42.65
38033;BME280;23841;48.524;1.342;2023-07-13T02:24:27;99426.00;;;23.65;42.71
38033;BME280;23841;48.524;1.342;2023-07-13T02:26:52;99433.28;;;23.65;42.91
38033;BME280;23841;48.524;1.342;2023-07-13T02:29:18;99426.09;;;23.64;42.93
38033;BME280;23841;48.524;1.342;2023-07-13T02:31:43;99424.38;;;23.63;42.77
38033;BME280;23841;48.524;1.342;2023-07-13T02:34:09;99422.63;;;23.62;42.77
38033;BME280;23841;48.524;1.342;2023-07-13T02:36:35;99414.63;;;23.60;42.99
38033;BME280;23841;48.524;1.342;2023-07-13T02:39:02;99415.50;;;23.61;42.93
38033;BME280;23841;48.524;1.342;2023-07-13T02:41:28;99420.03;;;23.60;43.00
38033;BME280;23841;48.524;1.342;2023-07-13T02:43:53;99432.75;;;23.60;42.72
38033;BME280;23841;48.524;1.342;2023-07-13T02:46:19;99424.59;;;23.60;42.90
38033;BME280;23841;48.524;1.342;2023-07-13T02:48:45;99429.19;;;23.59;42.86
38033;BME280;23841;48.524;1.342;2023-07-13T02:51:11;99418.44;;;23.58;43.02
38033;BME280;23841;48.524;1.342;2023-07-13T02:53:37;99419.41;;;23.57;43.07
38033;BME280;23841;48.524;1.342;2023-07-13T02:56:03;99422.13;;;23.57;42.81
38033;BME280;23841;48.524;1.342;2023-07-13T02:58:28;99429.38;;;23.56;42.91
38033;BME280;23841;48.524;1.342;2023-07-13T03:00:55;99430.38;;;23.55;42.91
38033;BME280;23841;48.524;1.342;2023-07-13T03:03:20;99425.06;;;23.54;43.05
38033;BME280;23841;48.524;1.342;2023-07-13T03:05:46;99432.31;;;23.53;42.79
38033;BME280;23841;48.524;1.342;2023-07-13T03:08:15;99427.00;;;23.51;42.86
38033;BME280;23841;48.524;1.342;2023-07-13T03:10:41;99429.72;;;23.51;42.98
38033;BME280;23841;48.524;1.342;2023-07-13T03:13:07;99425.28;;;23.50;42.87
38033;BME280;23841;48.524;1.342;2023-07-13T03:15:32;99427.97;;;23.50;42.99
38033;BME280;23841;48.524;1.342;2023-07-13T03:17:58;99426.28;;;23.49;42.93
38033;BME280;23841;48.524;1.342;2023-07-13T03:20:23;99426.28;;;23.49;42.86
38033;BME280;23841;48.524;1.342;2023-07-13T03:22:48;99433.53;;;23.49;42.91
38033;BME280;23841;48.524;1.342;2023-07-13T03:25:14;99427.34;;;23.47;42.74
38033;BME280;23841;48.524;1.342;2023-07-13T03:27:39;99430.94;;;23.47;42.81
38033;BME280;23841;48.524;1.342;2023-07-13T03:30:06;99423.75;;;23.46;42.77
38033;BME280;23841;48.524;1.342;2023-07-13T03:32:32;99423.75;;;23.46;42.92
38033;BME280;23841;48.524;1.342;2023-07-13T03:34:57;99428.44;;;23.44;42.58
38033;BME280;23841;48.524;1.342;2023-07-13T03:37:23;99438.31;;;23.45;42.69
38033;BME280;23841;48.524;1.342;2023-07-13T03:39:49;99442.00;;;23.44;42.81
38033;BME280;23841;48.524;1.342;2023-07-13T03:42:14;99432.13;;;23.43;42.72
38033;BME280;23841;48.524;1.342;2023-07-13T03:44:40;99438.53;;;23.42;42.68
38033;BME280;23841;48.524;1.342;2023-07-13T03:47:06;99441.22;;;23.42;42.88
38033;BME280;23841;48.524;1.342;2023-07-13T03:49:34;99446.88;;;23.39;42.90
38033;BME280;23841;48.524;1.342;2023-07-13T03:52:00;99441.47;;;23.39;42.86
38033;BME280;23841;48.524;1.342;2023-07-13T03:54:25;99453.28;;;23.38;42.70
38033;BME280;23841;48.524;1.342;2023-07-13T03:56:51;99452.31;;;23.39;42.81
38033;BME280;23841;48.524;1.342;2023-07-13T03:59:17;99458.69;;;23.38;42.68
38033;BME280;23841;48.524;1.342;2023-07-13T04:01:43;99460.56;;;23.38;42.79
38033;BME280;23841;48.524;1.342;2023-07-13T04:04:09;99457.09;;;23.35;42.71
38033;BME280;23841;48.524;1.342;2023-07-13T04:06:35;99469.53;;;23.38;42.84
38033;BME280;23841;48.524;1.342;2023-07-13T04:09:01;99471.50;;;23.36;42.66
38033;BME280;23841;48.524;1.342;2023-07-13T04:11:29;99465.22;;;23.35;42.79
38033;BME280;23841;48.524;1.342;2023-07-13T04:13:55;99473.47;;;23.34;43.07
38033;BME280;23841;48.524;1.342;2023-07-13T04:16:21;99462.63;;;23.34;43.04
38033;BME280;23841;48.524;1.342;2023-07-13T04:18:47;99462.63;;;23.34;43.02
38033;BME280;23841;48.524;1.342;2023-07-13T04:21:13;99464.47;;;23.33;43.02
38033;BME280;23841;48.524;1.342;2023-07-13T04:23:39;99460.00;;;23.32;42.84
38033;BME280;23841;48.524;1.342;2023-07-13T04:26:06;99457.41;;;23.31;42.96
38033;BME280;23841;48.524;1.342;2023-07-13T04:28:31;99462.94;;;23.29;43.23
38033;BME280;23841;48.524;1.342;2023-07-13T04:30:57;99468.38;;;23.29;43.19
38033;BME280;23841;48.524;1.342;2023-07-13T04:33:23;99470.22;;;23.29;42.99
38033;BME280;23841;48.524;1.342;2023-07-13T04:35:53;99465.66;;;23.29;43.17
38033;BME280;23841;48.524;1.342;2023-07-13T04:38:22;99463.06;;;23.28;43.38
38033;BME280;23841;48.524;1.342;2023-07-13T04:40:47;99466.75;;;23.27;43.06
38033;BME280;23841;48.524;1.342;2023-07-13T04:43:13;99472.16;;;23.27;43.20
38033;BME280;23841;48.524;1.342;2023-07-13T04:45:39;99479.44;;;23.26;43.23
38033;BME280;23841;48.524;1.342;2023-07-13T04:48:05;99476.84;;;23.25;43.20
38033;BME280;23841;48.524;1.342;2023-07-13T04:50:30;99476.84;;;23.25;43.52
38033;BME280;23841;48.524;1.342;2023-07-13T04:52:55;99481.47;;;23.23;43.53
38033;BME280;23841;48.524;1.342;2023-07-13T04:55:21;99474.25;;;23.23;43.55
38033;BME280;23841;48.524;1.342;2023-07-13T04:57:47;99484.19;;;23.23;43.32
38033;BME280;23841;48.524;1.342;2023-07-13T05:00:13;99496.03;;;23.22;43.36
38033;BME280;23841;48.524;1.342;2023-07-13T05:02:39;99484.41;;;23.20;43.43
38033;BME280;23841;48.524;1.342;2023-07-13T05:05:06;99477.25;;;23.18;43.74
38033;BME280;23841;48.524;1.342;2023-07-13T05:07:32;99491.69;;;23.19;43.44
38033;BME280;23841;48.524;1.342;2023-07-13T05:09:59;99494.41;;;23.19;43.69
38033;BME280;23841;48.524;1.342;2023-07-13T05:12:25;99490.91;;;23.17;43.47
38033;BME280;23841;48.524;1.342;2023-07-13T05:14:50;99496.22;;;23.18;43.80
38033;BME280;23841;48.524;1.342;2023-07-13T05:17:15;99492.78;;;23.16;43.51
38033;BME280;23841;48.524;1.342;2023-07-13T05:19:41;99491.91;;;23.16;43.56
38033;BME280;23841;48.524;1.342;2023-07-13T05:22:07;99500.03;;;23.16;43.64
38033;BME280;23841;48.524;1.342;2023-07-13T05:24:32;99495.59;;;23.15;43.93
38033;BME280;23841;48.524;1.342;2023-07-13T05:26:57;99505.53;;;23.14;43.66
38033;BME280;23841;48.524;1.342;2023-07-13T05:29:23;99498.41;;;23.13;43.71
38033;BME280;23841;48.524;1.342;2023-07-13T05:31:49;99503.84;;;23.13;43.98
38033;BME280;23841;48.524;1.342;2023-07-13T05:34:14;99502.09;;;23.12;43.72
38033;BME280;23841;48.524;1.342;2023-07-13T05:36:40;99504.81;;;23.12;43.88
38033;BME280;23841;48.524;1.342;2023-07-13T05:39:06;99505.75;;;23.11;44.16
38033;BME280;23841;48.524;1.342;2023-07-13T05:41:31;99509.41;;;23.10;44.02
38033;BME280;23841;48.524;1.342;2023-07-13T05:43:57;99508.56;;;23.10;44.16
38033;BME280;23841;48.524;1.342;2023-07-13T05:46:22;99521.25;;;23.09;43.98
38033;BME280;23841;48.524;1.342;2023-07-13T05:48:48;99521.25;;;23.09;44.01
38033;BME280;23841;48.524;1.342;2023-07-13T05:51:13;99528.50;;;23.09;44.24
38033;BME280;23841;48.524;1.342;2023-07-13T05:53:39;99520.47;;;23.07;44.23
38033;BME280;23841;48.524;1.342;2023-07-13T05:56:04;99522.31;;;23.07;44.30
38033;BME280;23841;48.524;1.342;2023-07-13T05:58:30;99528.72;;;23.06;44.14
38033;BME280;23841;48.524;1.342;2023-07-13T06:01:04;99524.19;;;23.06;44.43
38033;BME280;23841;48.524;1.342;2023-07-13T06:03:30;99528.72;;;23.06;44.29
38033;BME280;23841;48.524;1.342;2023-07-13T06:05:55;99529.69;;;23.05;44.50
38033;BME280;23841;48.524;1.342;2023-07-13T06:08:21;99530.78;;;23.02;44.63
38033;BME280;23841;48.524;1.342;2023-07-13T06:10:46;99535.22;;;23.03;44.50
38033;BME280;23841;48.524;1.342;2023-07-13T06:13:12;99534.34;;;23.02;44.58
38033;BME280;23841;48.524;1.342;2023-07-13T06:15:37;99528.06;;;23.02;44.68
38033;BME280;23841;48.524;1.342;2023-07-13T06:18:03;99523.50;;;23.02;44.64
38033;BME280;23841;48.524;1.342;2023-07-13T06:20:28;99525.56;;;22.99;44.69
38033;BME280;23841;48.524;1.342;2023-07-13T06:22:54;99519.19;;;23.00;44.82
38033;BME280;23841;48.524;1.342;2023-07-13T06:25:20;99525.56;;;22.99;44.84
38033;BME280;23841;48.524;1.342;2023-07-13T06:27:45;99538.13;;;23.00;44.87
38033;BME280;23841;48.524;1.342;2023-07-13T06:30:11;99540.84;;;23.00;44.70
38033;BME280;23841;48.524;1.342;2023-07-13T06:32:37;99530.22;;;22.97;44.84
38033;BME280;23841;48.524;1.342;2023-07-13T06:35:03;99533.78;;;22.97;45.03
38033;BME280;23841;48.524;1.342;2023-07-13T06:37:28;99541.06;;;22.97;45.05
38033;BME280;23841;48.524;1.342;2023-07-13T06:39:54;99544.84;;;22.94;44.90
38033;BME280;23841;48.524;1.342;2023-07-13T06:42:19;99545.81;;;22.93;45.12
38033;BME280;23841;48.524;1.342;2023-07-13T06:44:45;99539.53;;;22.93;45.26
38033;BME280;23841;48.524;1.342;2023-07-13T06:47:10;99540.63;;;22.90;45.15
38033;BME280;23841;48.524;1.342;2023-07-13T06:49:36;99542.38;;;22.91;45.32
38033;BME280;23841;48.524;1.342;2023-07-13T06:52:01;99542.47;;;22.90;45.36
38033;BME280;23841;48.524;1.342;2023-07-13T06:54:27;99545.47;;;22.85;45.59
38033;BME280;23841;48.524;1.342;2023-07-13T06:56:52;99550.78;;;22.87;45.51
38033;BME280;23841;48.524;1.342;2023-07-13T06:59:19;99548.00;;;22.88;45.32
38033;BME280;23841;48.524;1.342;2023-07-13T07:01:44;99559.69;;;22.89;45.51
38033;BME280;23841;48.524;1.342;2023-07-13T07:04:09;99557.94;;;22.88;45.56
38033;BME280;23841;48.524;1.342;2023-07-13T07:06:35;99555.22;;;22.88;45.64
38033;BME280;23841;48.524;1.342;2023-07-13T07:09:00;99562.63;;;22.86;45.87
38033;BME280;23841;48.524;1.342;2023-07-13T07:11:26;99561.72;;;22.85;45.79
38033;BME280;23841;48.524;1.342;2023-07-13T07:13:52;99556.19;;;22.87;45.77
38033;BME280;23841;48.524;1.342;2023-07-13T07:16:19;99561.84;;;22.83;45.80
38033;BME280;23841;48.524;1.342;2023-07-13T07:18:46;99554.59;;;22.84;45.63
38033;BME280;23841;48.524;1.342;2023-07-13T07:21:14;99561.84;;;22.83;45.94
38033;BME280;23841;48.524;1.342;2023-07-13T07:23:40;99560.09;;;22.82;45.86
38033;BME280;23841;48.524;1.342;2023-07-13T07:26:05;99569.00;;;22.84;45.59
38033;BME280;23841;48.524;1.342;2023-07-13T07:28:33;99569.84;;;22.85;45.83
38033;BME280;23841;48.524;1.342;2023-07-13T07:30:59;99581.56;;;22.86;45.60
38033;BME280;23841;48.524;1.342;2023-07-13T07:33:24;99575.38;;;22.83;45.98
38033;BME280;23841;48.524;1.342;2023-07-13T07:35:51;99583.50;;;22.83;45.63
38033;BME280;23841;48.524;1.342;2023-07-13T07:38:16;99579.81;;;22.84;45.92
38033;BME280;23841;48.524;1.342;2023-07-13T07:40:42;99581.75;;;22.82;45.87
38033;BME280;23841;48.524;1.342;2023-07-13T07:43:08;99584.56;;;22.81;45.99
38033;BME280;23841;48.524;1.342;2023-07-13T07:45:34;99587.16;;;22.82;45.57
38033;BME280;23841;48.524;1.342;2023-07-13T07:48:00;99587.28;;;22.81;45.92
38033;BME280;23841;48.524;1.342;2023-07-13T07:50:27;99598.22;;;22.79;45.94
38033;BME280;23841;48.524;1.342;2023-07-13T07:52:52;99599.28;;;22.77;46.16
38033;BME280;23841;48.524;1.342;2023-07-13T07:55:18;99594.75;;;22.77;45.87
38033;BME280;23841;48.524;1.342;2023-07-13T07:57:43;99591.94;;;22.79;46.05
38033;BME280;23841;48.524;1.342;2023-07-13T08:00:09;99595.50;;;22.79;45.67
38033;BME280;23841;48.524;1.342;2023-07-13T08:02:35;99594.66;;;22.79;45.96
38033;BME280;23841;48.524;1.342;2023-07-13T08:05:00;99593.81;;;22.78;46.01
38033;BME280;23841;48.524;1.342;2023-07-13T08:07:26;99603.00;;;22.76;46.05
38033;BME280;23841;48.524;1.342;2023-07-13T08:09:54;99606.56;;;22.76;46.23
38033;BME280;23841;48.524;1.342;2023-07-13T08:12:20;99604.81;;;22.75;45.98
38033;BME280;23841;48.524;1.342;2023-07-13T08:14:45;99603.84;;;22.76;46.03
38033;BME280;23841;48.524;1.342;2023-07-13T08:17:14;99599.28;;;22.77;46.05
38033;BME280;23841;48.524;1.342;2023-07-13T08:19:39;99605.59;;;22.77;45.74
38033;BME280;23841;48.524;1.342;2023-07-13T08:22:05;99603.09;;;22.74;46.04
38033;BME280;23841;48.524;1.342;2023-07-13T08:24:30;99601.16;;;22.76;45.98
38033;BME280;23841;48.524;1.342;2023-07-13T08:26:55;99596.69;;;22.75;46.11
38033;BME280;23841;48.524;1.342;2023-07-13T08:29:21;99603.00;;;22.76;46.10
38033;BME280;23841;48.524;1.342;2023-07-13T08:31:46;99596.91;;;22.72;46.03
38033;BME280;23841;48.524;1.342;2023-07-13T08:34:12;99599.50;;;22.74;46.06
38033;BME280;23841;48.524;1.342;2023-07-13T08:36:37;99601.47;;;22.72;46.19
38033;BME280;23841;48.524;1.342;2023-07-13T08:39:03;99597.75;;;22.73;46.06
38033;BME280;23841;48.524;1.342;2023-07-13T08:41:28;99599.50;;;22.74;45.86
38033;BME280;23841;48.524;1.342;2023-07-13T08:43:58;99596.91;;;22.72;45.97
38033;BME280;23841;48.524;1.342;2023-07-13T08:46:38;99601.34;;;22.73;45.69
38033;BME280;23841;48.524;1.342;2023-07-13T08:49:11;99604.06;;;22.73;45.86
38033;BME280;23841;48.524;1.342;2023-07-13T08:54:39;99603.19;;;22.73;46.07
38033;BME280;23841;48.524;1.342;2023-07-13T08:57:18;99601.47;;;22.72;46.06
38033;BME280;23841;48.524;1.342;2023-07-13T08:59:45;99613.16;;;22.72;45.74
38033;BME280;23841;48.524;1.342;2023-07-13T09:02:54;99605.88;;;22.73;45.87
38033;BME280;23841;48.524;1.342;2023-07-13T09:05:31;99611.41;;;22.71;45.92
38033;BME280;23841;48.524;1.342;2023-07-13T09:08:26;99611.63;;;22.68;45.96
38033;BME280;23841;48.524;1.342;2023-07-13T09:14:26;99607.28;;;22.65;45.96
38033;BME280;23841;48.524;1.342;2023-07-13T09:16:29;99604.47;;;22.67;46.20
38033;BME280;23841;48.524;1.342;2023-07-13T09:19:00;99610.88;;;22.66;45.83
38033;BME280;23841;48.524;1.342;2023-07-13T09:21:45;99608.16;;;22.66;46.16
38033;BME280;23841;48.524;1.342;2023-07-13T09:24:41;99609.97;;;22.65;45.89
38033;BME280;23841;48.524;1.342;2023-07-13T09:27:19;99609.22;;;22.63;45.86
38033;BME280;23841;48.524;1.342;2023-07-13T09:29:51;99612.03;;;22.62;45.95
38033;BME280;23841;48.524;1.342;2023-07-13T09:32:21;99620.91;;;22.64;46.01
38033;BME280;23841;48.524;1.342;2023-07-13T09:34:52;99619.09;;;22.64;45.99
38033;BME280;23841;48.524;1.342;2023-07-13T09:37:29;99619.19;;;22.63;45.78
38033;BME280;23841;48.524;1.342;2023-07-13T09:39:55;99618.44;;;22.61;46.15
38033;BME280;23841;48.524;1.342;2023-07-13T09:42:23;99612.03;;;22.62;45.77
38033;BME280;23841;48.524;1.342;2023-07-13T09:44:56;99613.88;;;22.61;46.05
38033;BME280;23841;48.524;1.342;2023-07-13T09:47:25;99622.09;;;22.60;46.19
38033;BME280;23841;48.524;1.342;2023-07-13T09:50:00;99610.31;;;22.61;46.16
38033;BME280;23841;48.524;1.342;2023-07-13T09:52:27;99614.06;;;22.58;45.97
38033;BME280;23841;48.524;1.342;2023-07-13T09:54:54;99618.31;;;22.62;46.03
38033;BME280;23841;48.524;1.342;2023-07-13T09:57:27;99625.47;;;22.63;45.97
38033;BME280;23841;48.524;1.342;2023-07-13T09:59:54;99618.31;;;22.62;46.09
38033;BME280;23841;48.524;1.342;2023-07-13T10:02:33;99619.19;;;22.63;46.01
38033;BME280;23841;48.524;1.342;2023-07-13T10:05:00;99620.06;;;22.63;45.85
38033;BME280;23841;48.524;1.342;2023-07-13T10:07:26;99617.25;;;22.65;45.72
38033;BME280;23841;48.524;1.342;2023-07-13T10:09:56;99620.72;;;22.67;45.86
38033;BME280;23841;48.524;1.342;2023-07-13T10:12:23;99631.53;;;22.67;45.90
38033;BME280;23841;48.524;1.342;2023-07-13T10:14:52;99625.25;;;22.66;45.91
38033;BME280;23841;48.524;1.342;2023-07-13T10:17:26;99631.53;;;22.67;46.08
38033;BME280;23841;48.524;1.342;2023-07-13T10:20:02;99626.13;;;22.67;45.87
38033;BME280;23841;48.524;1.342;2023-07-13T10:25:20;99646.72;;;22.70;45.93
38033;BME280;23841;48.524;1.342;2023-07-13T10:27:50;99640.44;;;22.69;46.05
38033;BME280;23841;48.524;1.342;2023-07-13T10:32:49;99640.44;;;22.69;45.84
38033;BME280;23841;48.524;1.342;2023-07-13T10:35:16;99645.84;;;22.69;46.15
38033;BME280;23841;48.524;1.342;2023-07-13T10:37:50;99644.78;;;22.72;46.03
38033;BME280;23841;48.524;1.342;2023-07-13T10:40:27;99634.91;;;22.71;46.09
38033;BME280;23841;48.524;1.342;2023-07-13T10:42:56;99632.31;;;22.69;46.05
38033;BME280;23841;48.524;1.342;2023-07-13T10:45:24;99640.22;;;22.72;45.99
38033;BME280;23841;48.524;1.342;2023-07-13T10:47:56;99641.97;;;22.73;46.12
38033;BME280;23841;48.524;1.342;2023-07-13T10:50:24;99641.09;;;22.73;46.22
38033;BME280;23841;48.524;1.342;2023-07-13T10:52:52;99636.56;;;22.73;46.23
38033;BME280;23841;48.524;1.342;2023-07-13T10:58:12;99639.16;;;22.75;46.13
38033;BME280;23841;48.524;1.342;2023-07-13T11:03:22;99638.31;;;22.74;46.33
38033;BME280;23841;48.524;1.342;2023-07-13T11:05:49;99645.44;;;22.75;46.49
38033;BME280;23841;48.524;1.342;2023-07-13T11:08:34;99635.50;;;22.76;46.49
38033;BME280;23841;48.524;1.342;2023-07-13T11:18:48;99635.38;;;22.77;46.36
38033;BME280;23841;48.524;1.342;2023-07-13T11:23:42;99629.00;;;22.78;46.25
38033;BME280;23841;48.524;1.342;2023-07-13T11:26:39;99621.75;;;22.79;46.47
38033;BME280;23841;48.524;1.342;2023-07-13T11:32:00;99623.59;;;22.78;46.40
38033;BME280;23841;48.524;1.342;2023-07-13T11:34:39;99619.88;;;22.79;46.48
38033;BME280;23841;48.524;1.342;2023-07-13T11:37:11;99617.19;;;22.79;46.18
38033;BME280;23841;48.524;1.342;2023-07-13T11:39:42;99611.75;;;22.79;46.47
38033;BME280;23841;48.524;1.342;2023-07-13T11:42:13;99608.09;;;22.80;46.48
38033;BME280;23841;48.524;1.342;2023-07-13T11:44:50;99594.44;;;22.82;46.31
38033;BME280;23841;48.524;1.342;2023-07-13T11:47:22;99603.41;;;22.82;46.33
38033;BME280;23841;48.524;1.342;2023-07-13T11:49:51;99599.75;;;22.83;46.46
38033;BME280;23841;48.524;1.342;2023-07-13T11:52:21;99598.78;;;22.84;46.06
38033;BME280;23841;48.524;1.342;2023-07-13T11:54:53;99595.97;;;22.86;46.34
38033;BME280;23841;48.524;1.342;2023-07-13T11:59:51;99595.00;;;22.87;46.32
38033;BME280;23841;48.524;1.342;2023-07-13T12:02:32;99600.31;;;22.89;46.35
38033;BME280;23841;48.524;1.342;2023-07-13T12:05:00;99605.72;;;22.89;46.14
38033;BME280;23841;48.524;1.342;2023-07-13T12:07:29;99599.34;;;22.90;46.11
38033;BME280;23841;48.524;1.342;2023-07-13T12:10:24;99603.88;;;22.89;46.12
38033;BME280;23841;48.524;1.342;2023-07-13T12:12:56;99602.06;;;22.90;46.38
38033;BME280;23841;48.524;1.342;2023-07-13T12:15:27;99602.16;;;22.88;46.19
38033;BME280;23841;48.524;1.342;2023-07-13T12:17:53;99598.47;;;22.89;46.42
38033;BME280;23841;48.524;1.342;2023-07-13T12:20:37;99605.63;;;22.90;46.18
38033;BME280;23841;48.524;1.342;2023-07-13T12:25:52;99609.19;;;22.91;46.08
38033;BME280;23841;48.524;1.342;2023-07-13T12:31:05;99597.38;;;22.92;46.03
38033;BME280;23841;48.524;1.342;2023-07-13T12:33:33;99596.53;;;22.91;46.38
38033;BME280;23841;48.524;1.342;2023-07-13T12:36:05;99593.72;;;22.93;46.33
38033;BME280;23841;48.524;1.342;2023-07-13T12:38:31;99593.72;;;22.93;45.88
38033;BME280;23841;48.524;1.342;2023-07-13T12:40:58;99594.69;;;22.92;46.17
38033;BME280;23841;48.524;1.342;2023-07-13T12:43:24;99593.72;;;22.93;46.12
38033;BME280;23841;48.524;1.342;2023-07-13T12:46:18;99604.44;;;22.94;45.88
38033;BME280;23841;48.524;1.342;2023-07-13T12:48:48;99598.06;;;22.95;46.30
38033;BME280;23841;48.524;1.342;2023-07-13T12:51:15;99592.75;;;22.94;46.09
38033;BME280;23841;48.524;1.342;2023-07-13T12:53:48;99602.59;;;22.95;46.16
38033;BME280;23841;48.524;1.342;2023-07-13T12:56:23;99598.06;;;22.95;45.93
38033;BME280;23841;48.524;1.342;2023-07-13T12:58:51;99602.59;;;22.95;45.91
38033;BME280;23841;48.524;1.342;2023-07-13T13:01:21;99597.94;;;22.97;45.90
38033;BME280;23841;48.524;1.342;2023-07-13T13:03:52;99590.69;;;22.97;46.18
38033;BME280;23841;48.524;1.342;2023-07-13T13:06:20;99587.13;;;22.97;46.15
38033;BME280;23841;48.524;1.342;2023-07-13T13:08:52;99591.56;;;22.98;45.99
38033;BME280;23841;48.524;1.342;2023-07-13T13:11:19;99587.00;;;22.98;46.18
38033;BME280;23841;48.524;1.342;2023-07-13T13:13:45;99587.88;;;22.99;45.94
38033;BME280;23841;48.524;1.342;2023-07-13T13:16:31;99581.47;;;23.00;45.86
38033;BME280;23841;48.524;1.342;2023-07-13T13:18:59;99587.88;;;22.99;46.23
38033;BME280;23841;48.524;1.342;2023-07-13T13:21:27;99573.34;;;23.00;45.89
38033;BME280;23841;48.524;1.342;2023-07-13T13:23:53;99583.22;;;23.01;46.04
38033;BME280;23841;48.524;1.342;2023-07-13T13:26:19;99564.25;;;23.01;46.13
38033;BME280;23841;48.524;1.342;2023-07-13T13:28:46;99574.13;;;23.02;46.00
38033;BME280;23841;48.524;1.342;2023-07-13T13:31:13;99571.41;;;23.02;46.07
38033;BME280;23841;48.524;1.342;2023-07-13T13:33:41;99572.28;;;23.02;46.13
38033;BME280;23841;48.524;1.342;2023-07-13T13:36:20;99565.00;;;23.03;45.91
38033;BME280;23841;48.524;1.342;2023-07-13T13:38:47;99566.00;;;23.02;46.05
38033;BME280;23841;48.524;1.342;2023-07-13T13:41:14;99566.88;;;23.02;45.97
38033;BME280;23841;48.524;1.342;2023-07-13T13:43:41;99573.91;;;23.05;45.78
38033;BME280;23841;48.524;1.342;2023-07-13T13:46:15;99573.81;;;23.07;46.06